sensor_id;sensor_type;location;lat;lon;timestamp;P1;durP1;ratioP1;P2;durP2;ratioP2
83541;SDS011;73485;49.194;12.104;2024-02-23T00:01:44;0.88;;;0.80;;
83541;SDS011;73485;49.194;12.104;2024-02-23T00:04:12;1.23;;;0.63;;
83541;SDS011;73485;49.194;12.104;2024-02-23T00:06:39;1.00;;;0.70;;
83541;SDS011;73485;49.194;12.104;2024-02-23T00:09:07;0.90;;;0.43;;
83541;SDS011;73485;49.194;12.104;2024-02-23T00:11:36;1.05;;;0.73;;
83541;SDS011;73485;49.194;12.104;2024-02-23T00:14:10;1.17;;;0.70;;
83541;SDS011;73485;49.194;12.104;2024-02-23T00:16:38;1.20;;;0.52;;
83541;SDS011;73485;49.194;12.104;2024-02-23T00:19:07;1.15;;;0.60;;
83541;SDS011;73485;49.194;12.104;2024-02-23T00:21:35;1.23;;;0.63;;
83541;SDS011;73485;49.194;12.104;2024-02-23T00:24:03;0.68;;;0.60;;
83541;SDS011;73485;49.194;12.104;2024-02-23T00:26:31;1.17;;;0.80;;
83541;SDS011;73485;49.194;12.104;2024-02-23T00:29:00;1.17;;;0.70;;
83541;SDS011;73485;49.194;12.104;2024-02-23T00:31:29;1.75;;;0.75;;
83541;SDS011;73485;49.194;12.104;2024-02-23T00:33:57;2.55;;;1.33;;
83541;SDS011;73485;49.194;12.104;2024-02-23T00:36:25;2.90;;;1.65;;
83541;SDS011;73485;49.194;12.104;2024-02-23T00:38:52;2.17;;;0.85;;
83541;SDS011;73485;49.194;12.104;2024-02-23T00:41:20;1.25;;;0.70;;
83541;SDS011;73485;49.194;12.104;2024-02-23T00:43:48;1.90;;;0.93;;
83541;SDS011;73485;49.194;12.104;2024-02-23T00:46:17;0.98;;;0.63;;
83541;SDS011;73485;49.194;12.104;2024-02-23T00:48:44;1.35;;;0.40;;
83541;SDS011;73485;49.194;12.104;2024-02-23T00:51:12;2.80;;;0.70;;
83541;SDS011;73485;49.194;12.104;2024-02-23T00:53:40;0.90;;;0.60;;
83541;SDS011;73485;49.194;12.104;2024-02-23T00:56:07;0.82;;;0.43;;
83541;SDS011;73485;49.194;12.104;2024-02-23T00:58:35;1.60;;;0.50;;
83541;SDS011;73485;49.194;12.104;2024-02-23T01:01:03;3.45;;;0.47;;
83541;SDS011;73485;49.194;12.104;2024-02-23T01:03:32;0.70;;;0.45;;
83541;SDS011;73485;49.194;12.104;2024-02-23T01:06:00;0.77;;;0.60;;
83541;SDS011;73485;49.194;12.104;2024-02-23T01:08:27;0.77;;;0.60;;
83541;SDS011;73485;49.194;12.104;2024-02-23T01:10:55;0.50;;;0.50;;
83541;SDS011;73485;49.194;12.104;2024-02-23T01:13:23;0.77;;;0.55;;
83541;SDS011;73485;49.194;12.104;2024-02-23T01:15:51;1.98;;;0.50;;
83541;SDS011;73485;49.194;12.104;2024-02-23T01:18:20;0.85;;;0.40;;
83541;SDS011;73485;49.194;12.104;2024-02-23T01:20:49;0.47;;;0.45;;
83541;SDS011;73485;49.194;12.104;2024-02-23T01:23:17;0.38;;;0.30;;
83541;SDS011;73485;49.194;12.104;2024-02-23T01:25:45;0.52;;;0.40;;
83541;SDS011;73485;49.194;12.104;2024-02-23T01:28:12;0.30;;;0.30;;
83541;SDS011;73485;49.194;12.104;2024-02-23T01:30:40;0.30;;;0.30;;
83541;SDS011;73485;49.194;12.104;2024-02-23T01:33:08;0.30;;;0.30;;
83541;SDS011;73485;49.194;12.104;2024-02-23T01:35:36;0.75;;;0.38;;
83541;SDS011;73485;49.194;12.104;2024-02-23T01:38:05;0.65;;;0.40;;
83541;SDS011;73485;49.194;12.104;2024-02-23T01:40:33;0.40;;;0.40;;
83541;SDS011;73485;49.194;12.104;2024-02-23T01:43:01;0.30;;;0.30;;
83541;SDS011;73485;49.194;12.104;2024-02-23T01:45:30;0.60;;;0.40;;
83541;SDS011;73485;49.194;12.104;2024-02-23T01:47:58;0.30;;;0.30;;
83541;SDS011;73485;49.194;12.104;2024-02-23T01:50:26;0.70;;;0.70;;
83541;SDS011;73485;49.194;12.104;2024-02-23T01:52:55;0.73;;;0.40;;
83541;SDS011;73485;49.194;12.104;2024-02-23T01:57:53;0.52;;;0.43;;
83541;SDS011;73485;49.194;12.104;2024-02-23T02:00:21;0.43;;;0.25;;
83541;SDS011;73485;49.194;12.104;2024-02-23T02:02:49;0.40;;;0.40;;
83541;SDS011;73485;49.194;12.104;2024-02-23T02:05:17;0.32;;;0.32;;
83541;SDS011;73485;49.194;12.104;2024-02-23T02:07:44;0.60;;;0.43;;
83541;SDS011;73485;49.194;12.104;2024-02-23T02:10:13;0.70;;;0.70;;
83541;SDS011;73485;49.194;12.104;2024-02-23T02:12:42;4.65;;;0.73;;
83541;SDS011;73485;49.194;12.104;2024-02-23T02:15:10;0.35;;;0.35;;
83541;SDS011;73485;49.194;12.104;2024-02-23T02:17:37;1.33;;;0.35;;
83541;SDS011;73485;49.194;12.104;2024-02-23T02:20:05;2.28;;;0.50;;
83541;SDS011;73485;49.194;12.104;2024-02-23T02:22:35;0.43;;;0.43;;
83541;SDS011;73485;49.194;12.104;2024-02-23T02:25:02;0.32;;;0.32;;
83541;SDS011;73485;49.194;12.104;2024-02-23T02:27:30;0.40;;;0.40;;
83541;SDS011;73485;49.194;12.104;2024-02-23T02:29:59;1.17;;;0.35;;
83541;SDS011;73485;49.194;12.104;2024-02-23T02:32:27;0.30;;;0.30;;
83541;SDS011;73485;49.194;12.104;2024-02-23T02:34:58;0.30;;;0.30;;
83541;SDS011;73485;49.194;12.104;2024-02-23T02:37:25;1.73;;;0.88;;
83541;SDS011;73485;49.194;12.104;2024-02-23T02:39:53;0.38;;;0.38;;
83541;SDS011;73485;49.194;12.104;2024-02-23T02:42:21;0.20;;;0.20;;
83541;SDS011;73485;49.194;12.104;2024-02-23T02:44:48;0.45;;;0.43;;
83541;SDS011;73485;49.194;12.104;2024-02-23T02:47:17;0.60;;;0.43;;
83541;SDS011;73485;49.194;12.104;2024-02-23T02:49:45;0.73;;;0.22;;
83541;SDS011;73485;49.194;12.104;2024-02-23T02:52:12;0.30;;;0.30;;
83541;SDS011;73485;49.194;12.104;2024-02-23T02:54:40;0.60;;;0.40;;
83541;SDS011;73485;49.194;12.104;2024-02-23T02:57:08;0.38;;;0.38;;
83541;SDS011;73485;49.194;12.104;2024-02-23T02:59:35;1.08;;;0.35;;
83541;SDS011;73485;49.194;12.104;2024-02-23T03:02:03;0.30;;;0.30;;
83541;SDS011;73485;49.194;12.104;2024-02-23T03:04:32;0.50;;;0.45;;
83541;SDS011;73485;49.194;12.104;2024-02-23T03:07:00;0.43;;;0.43;;
83541;SDS011;73485;49.194;12.104;2024-02-23T03:09:28;0.32;;;0.32;;
83541;SDS011;73485;49.194;12.104;2024-02-23T03:11:55;1.10;;;0.68;;
83541;SDS011;73485;49.194;12.104;2024-02-23T03:14:23;0.60;;;0.40;;
83541;SDS011;73485;49.194;12.104;2024-02-23T03:16:51;0.43;;;0.40;;
83541;SDS011;73485;49.194;12.104;2024-02-23T03:19:18;0.55;;;0.52;;
83541;SDS011;73485;49.194;12.104;2024-02-23T03:21:50;1.35;;;0.55;;
83541;SDS011;73485;49.194;12.104;2024-02-23T03:24:18;1.30;;;0.47;;
83541;SDS011;73485;49.194;12.104;2024-02-23T03:26:45;1.23;;;0.60;;
83541;SDS011;73485;49.194;12.104;2024-02-23T03:29:13;0.45;;;0.45;;
83541;SDS011;73485;49.194;12.104;2024-02-23T03:31:41;0.40;;;0.40;;
83541;SDS011;73485;49.194;12.104;2024-02-23T03:34:09;5.07;;;0.45;;
83541;SDS011;73485;49.194;12.104;2024-02-23T03:36:36;1.20;;;0.52;;
83541;SDS011;73485;49.194;12.104;2024-02-23T03:39:05;1.98;;;0.52;;
83541;SDS011;73485;49.194;12.104;2024-02-23T03:41:33;2.83;;;0.55;;
83541;SDS011;73485;49.194;12.104;2024-02-23T03:44:01;1.08;;;0.65;;
83541;SDS011;73485;49.194;12.104;2024-02-23T03:46:28;0.60;;;0.45;;
83541;SDS011;73485;49.194;12.104;2024-02-23T03:48:56;0.50;;;0.40;;
83541;SDS011;73485;49.194;12.104;2024-02-23T03:51:24;0.93;;;0.65;;
83541;SDS011;73485;49.194;12.104;2024-02-23T03:53:51;1.88;;;0.75;;
83541;SDS011;73485;49.194;12.104;2024-02-23T03:56:19;0.55;;;0.40;;
83541;SDS011;73485;49.194;12.104;2024-02-23T03:58:47;0.90;;;0.55;;
83541;SDS011;73485;49.194;12.104;2024-02-23T04:01:15;1.13;;;0.65;;
83541;SDS011;73485;49.194;12.104;2024-02-23T04:03:42;0.60;;;0.40;;
83541;SDS011;73485;49.194;12.104;2024-02-23T04:06:10;5.00;;;0.70;;
83541;SDS011;73485;49.194;12.104;2024-02-23T04:08:38;0.63;;;0.50;;
83541;SDS011;73485;49.194;12.104;2024-02-23T04:11:05;2.10;;;0.60;;
83541;SDS011;73485;49.194;12.104;2024-02-23T04:13:34;1.15;;;0.55;;
83541;SDS011;73485;49.194;12.104;2024-02-23T04:16:02;3.08;;;1.27;;
83541;SDS011;73485;49.194;12.104;2024-02-23T04:18:30;1.63;;;0.60;;
83541;SDS011;73485;49.194;12.104;2024-02-23T04:20:58;0.73;;;0.50;;
83541;SDS011;73485;49.194;12.104;2024-02-23T04:23:26;0.90;;;0.60;;
83541;SDS011;73485;49.194;12.104;2024-02-23T04:25:53;0.68;;;0.38;;
83541;SDS011;73485;49.194;12.104;2024-02-23T04:28:21;0.70;;;0.45;;
83541;SDS011;73485;49.194;12.104;2024-02-23T04:30:50;2.42;;;0.50;;
83541;SDS011;73485;49.194;12.104;2024-02-23T04:33:18;0.55;;;0.50;;
83541;SDS011;73485;49.194;12.104;2024-02-23T04:35:45;4.70;;;1.25;;
83541;SDS011;73485;49.194;12.104;2024-02-23T04:38:13;2.05;;;0.65;;
83541;SDS011;73485;49.194;12.104;2024-02-23T04:40:41;0.50;;;0.50;;
83541;SDS011;73485;49.194;12.104;2024-02-23T04:43:09;0.90;;;0.63;;
83541;SDS011;73485;49.194;12.104;2024-02-23T04:45:36;1.00;;;0.63;;
83541;SDS011;73485;49.194;12.104;2024-02-23T04:48:06;0.82;;;0.70;;
83541;SDS011;73485;49.194;12.104;2024-02-23T04:50:34;1.42;;;0.52;;
83541;SDS011;73485;49.194;12.104;2024-02-23T04:53:02;1.63;;;0.77;;
83541;SDS011;73485;49.194;12.104;2024-02-23T04:55:30;3.65;;;0.60;;
83541;SDS011;73485;49.194;12.104;2024-02-23T04:57:57;2.42;;;0.60;;
83541;SDS011;73485;49.194;12.104;2024-02-23T05:00:25;4.43;;;0.52;;
83541;SDS011;73485;49.194;12.104;2024-02-23T05:02:59;0.82;;;0.50;;
83541;SDS011;73485;49.194;12.104;2024-02-23T05:05:31;0.52;;;0.52;;
83541;SDS011;73485;49.194;12.104;2024-02-23T05:07:58;2.30;;;0.65;;
83541;SDS011;73485;49.194;12.104;2024-02-23T05:10:26;0.60;;;0.60;;
83541;SDS011;73485;49.194;12.104;2024-02-23T05:12:54;0.70;;;0.50;;
83541;SDS011;73485;49.194;12.104;2024-02-23T05:15:22;0.80;;;0.55;;
83541;SDS011;73485;49.194;12.104;2024-02-23T05:17:49;0.52;;;0.52;;
83541;SDS011;73485;49.194;12.104;2024-02-23T05:20:17;0.77;;;0.40;;
83541;SDS011;73485;49.194;12.104;2024-02-23T05:22:46;1.90;;;0.40;;
83541;SDS011;73485;49.194;12.104;2024-02-23T05:25:14;2.00;;;0.80;;
83541;SDS011;73485;49.194;12.104;2024-02-23T05:27:42;0.93;;;0.32;;
83541;SDS011;73485;49.194;12.104;2024-02-23T05:30:11;2.88;;;0.57;;
83541;SDS011;73485;49.194;12.104;2024-02-23T05:32:39;0.90;;;0.47;;
83541;SDS011;73485;49.194;12.104;2024-02-23T05:35:07;3.22;;;1.00;;
83541;SDS011;73485;49.194;12.104;2024-02-23T05:37:35;1.00;;;0.70;;
83541;SDS011;73485;49.194;12.104;2024-02-23T05:40:05;3.25;;;1.00;;
83541;SDS011;73485;49.194;12.104;2024-02-23T05:42:36;4.55;;;1.13;;
83541;SDS011;73485;49.194;12.104;2024-02-23T05:45:06;2.08;;;0.90;;
83541;SDS011;73485;49.194;12.104;2024-02-23T05:47:35;6.57;;;1.05;;
83541;SDS011;73485;49.194;12.104;2024-02-23T05:50:04;1.02;;;0.80;;
83541;SDS011;73485;49.194;12.104;2024-02-23T05:52:32;2.17;;;1.30;;
83541;SDS011;73485;49.194;12.104;2024-02-23T05:55:00;1.90;;;0.82;;
83541;SDS011;73485;49.194;12.104;2024-02-23T05:57:29;2.35;;;0.90;;
83541;SDS011;73485;49.194;12.104;2024-02-23T05:59:56;2.90;;;1.13;;
83541;SDS011;73485;49.194;12.104;2024-02-23T06:02:24;3.30;;;1.30;;
83541;SDS011;73485;49.194;12.104;2024-02-23T06:04:52;1.30;;;0.93;;
83541;SDS011;73485;49.194;12.104;2024-02-23T06:07:20;2.13;;;0.95;;
83541;SDS011;73485;49.194;12.104;2024-02-23T06:09:55;3.75;;;1.02;;
83541;SDS011;73485;49.194;12.104;2024-02-23T06:12:23;2.70;;;1.20;;
83541;SDS011;73485;49.194;12.104;2024-02-23T06:14:52;1.98;;;0.73;;
83541;SDS011;73485;49.194;12.104;2024-02-23T06:17:21;2.05;;;0.73;;
83541;SDS011;73485;49.194;12.104;2024-02-23T06:19:50;1.63;;;0.70;;
83541;SDS011;73485;49.194;12.104;2024-02-23T06:22:19;3.40;;;0.73;;
83541;SDS011;73485;49.194;12.104;2024-02-23T06:24:48;1.55;;;0.65;;
83541;SDS011;73485;49.194;12.104;2024-02-23T06:27:16;2.67;;;0.65;;
83541;SDS011;73485;49.194;12.104;2024-02-23T06:29:43;1.83;;;0.73;;
83541;SDS011;73485;49.194;12.104;2024-02-23T06:32:12;3.85;;;1.60;;
83541;SDS011;73485;49.194;12.104;2024-02-23T06:34:40;7.00;;;1.42;;
83541;SDS011;73485;49.194;12.104;2024-02-23T06:37:08;2.03;;;1.10;;
83541;SDS011;73485;49.194;12.104;2024-02-23T06:39:35;3.55;;;0.93;;
83541;SDS011;73485;49.194;12.104;2024-02-23T06:42:03;3.70;;;0.70;;
83541;SDS011;73485;49.194;12.104;2024-02-23T06:44:31;7.07;;;0.82;;
83541;SDS011;73485;49.194;12.104;2024-02-23T06:46:59;3.72;;;1.00;;
83541;SDS011;73485;49.194;12.104;2024-02-23T06:49:28;3.70;;;1.00;;
83541;SDS011;73485;49.194;12.104;2024-02-23T06:51:56;2.25;;;1.17;;
83541;SDS011;73485;49.194;12.104;2024-02-23T06:54:23;1.77;;;0.88;;
83541;SDS011;73485;49.194;12.104;2024-02-23T06:56:51;3.78;;;0.88;;
83541;SDS011;73485;49.194;12.104;2024-02-23T06:59:18;0.82;;;0.73;;
83541;SDS011;73485;49.194;12.104;2024-02-23T07:01:49;1.98;;;0.82;;
83541;SDS011;73485;49.194;12.104;2024-02-23T07:04:18;1.45;;;0.95;;
83541;SDS011;73485;49.194;12.104;2024-02-23T07:06:47;1.50;;;0.93;;
83541;SDS011;73485;49.194;12.104;2024-02-23T07:09:15;1.63;;;1.15;;
83541;SDS011;73485;49.194;12.104;2024-02-23T07:11:42;1.45;;;1.13;;
83541;SDS011;73485;49.194;12.104;2024-02-23T07:14:12;3.20;;;0.95;;
83541;SDS011;73485;49.194;12.104;2024-02-23T07:16:40;1.15;;;0.82;;
83541;SDS011;73485;49.194;12.104;2024-02-23T07:19:08;1.77;;;0.70;;
83541;SDS011;73485;49.194;12.104;2024-02-23T07:21:36;3.15;;;1.00;;
83541;SDS011;73485;49.194;12.104;2024-02-23T07:24:10;2.17;;;0.80;;
83541;SDS011;73485;49.194;12.104;2024-02-23T07:26:37;2.65;;;0.95;;
83541;SDS011;73485;49.194;12.104;2024-02-23T07:29:05;2.50;;;1.15;;
83541;SDS011;73485;49.194;12.104;2024-02-23T07:31:33;1.85;;;0.73;;
83541;SDS011;73485;49.194;12.104;2024-02-23T07:34:00;0.95;;;0.80;;
83541;SDS011;73485;49.194;12.104;2024-02-23T07:36:28;0.90;;;0.75;;
83541;SDS011;73485;49.194;12.104;2024-02-23T07:38:56;1.15;;;0.60;;
83541;SDS011;73485;49.194;12.104;2024-02-23T07:41:25;2.00;;;1.13;;
83541;SDS011;73485;49.194;12.104;2024-02-23T07:43:53;2.63;;;0.98;;
83541;SDS011;73485;49.194;12.104;2024-02-23T07:46:20;3.05;;;0.73;;
83541;SDS011;73485;49.194;12.104;2024-02-23T07:48:52;1.90;;;0.70;;
83541;SDS011;73485;49.194;12.104;2024-02-23T07:51:20;1.50;;;0.85;;
83541;SDS011;73485;49.194;12.104;2024-02-23T07:53:48;3.42;;;0.88;;
83541;SDS011;73485;49.194;12.104;2024-02-23T07:56:16;5.63;;;0.90;;
83541;SDS011;73485;49.194;12.104;2024-02-23T07:58:45;1.75;;;0.60;;
83541;SDS011;73485;49.194;12.104;2024-02-23T08:01:13;2.58;;;0.70;;
83541;SDS011;73485;49.194;12.104;2024-02-23T08:03:41;2.55;;;0.70;;
83541;SDS011;73485;49.194;12.104;2024-02-23T08:06:09;1.08;;;0.73;;
83541;SDS011;73485;49.194;12.104;2024-02-23T08:08:39;1.52;;;0.82;;
83541;SDS011;73485;49.194;12.104;2024-02-23T08:11:07;4.10;;;1.10;;
83541;SDS011;73485;49.194;12.104;2024-02-23T08:13:35;1.00;;;0.90;;
83541;SDS011;73485;49.194;12.104;2024-02-23T08:16:04;6.13;;;1.58;;
83541;SDS011;73485;49.194;12.104;2024-02-23T08:18:32;5.78;;;1.88;;
83541;SDS011;73485;49.194;12.104;2024-02-23T08:21:00;1.90;;;0.90;;
83541;SDS011;73485;49.194;12.104;2024-02-23T08:23:29;4.93;;;1.33;;
83541;SDS011;73485;49.194;12.104;2024-02-23T08:25:57;3.60;;;1.20;;
83541;SDS011;73485;49.194;12.104;2024-02-23T08:28:26;5.18;;;1.45;;
83541;SDS011;73485;49.194;12.104;2024-02-23T08:30:54;5.60;;;1.70;;
83541;SDS011;73485;49.194;12.104;2024-02-23T08:33:23;6.07;;;1.23;;
83541;SDS011;73485;49.194;12.104;2024-02-23T08:35:51;1.98;;;0.98;;
83541;SDS011;73485;49.194;12.104;2024-02-23T08:38:19;1.77;;;0.75;;
83541;SDS011;73485;49.194;12.104;2024-02-23T08:40:46;1.10;;;0.75;;
83541;SDS011;73485;49.194;12.104;2024-02-23T08:43:14;1.70;;;0.63;;
83541;SDS011;73485;49.194;12.104;2024-02-23T08:45:41;3.78;;;0.77;;
83541;SDS011;73485;49.194;12.104;2024-02-23T08:48:09;0.75;;;0.57;;
83541;SDS011;73485;49.194;12.104;2024-02-23T08:50:42;0.70;;;0.63;;
83541;SDS011;73485;49.194;12.104;2024-02-23T08:53:10;0.57;;;0.50;;
83541;SDS011;73485;49.194;12.104;2024-02-23T08:55:38;2.88;;;1.33;;
83541;SDS011;73485;49.194;12.104;2024-02-23T08:58:05;3.38;;;1.42;;
83541;SDS011;73485;49.194;12.104;2024-02-23T09:00:33;1.42;;;0.75;;
83541;SDS011;73485;49.194;12.104;2024-02-23T09:03:03;2.10;;;0.77;;
83541;SDS011;73485;49.194;12.104;2024-02-23T09:05:31;1.52;;;1.00;;
83541;SDS011;73485;49.194;12.104;2024-02-23T09:08:00;1.95;;;1.35;;
83541;SDS011;73485;49.194;12.104;2024-02-23T09:10:28;2.03;;;1.02;;
83541;SDS011;73485;49.194;12.104;2024-02-23T09:12:56;4.70;;;1.35;;
83541;SDS011;73485;49.194;12.104;2024-02-23T09:15:23;1.50;;;1.10;;
83541;SDS011;73485;49.194;12.104;2024-02-23T09:17:51;1.23;;;0.75;;
83541;SDS011;73485;49.194;12.104;2024-02-23T09:20:19;1.45;;;0.80;;
83541;SDS011;73485;49.194;12.104;2024-02-23T09:22:46;1.85;;;0.82;;
83541;SDS011;73485;49.194;12.104;2024-02-23T09:25:15;1.40;;;0.90;;
83541;SDS011;73485;49.194;12.104;2024-02-23T09:27:43;0.82;;;0.63;;
83541;SDS011;73485;49.194;12.104;2024-02-23T09:30:11;1.75;;;0.80;;
83541;SDS011;73485;49.194;12.104;2024-02-23T09:32:40;2.53;;;1.38;;
83541;SDS011;73485;49.194;12.104;2024-02-23T09:35:08;2.33;;;1.10;;
83541;SDS011;73485;49.194;12.104;2024-02-23T09:37:36;4.03;;;0.50;;
83541;SDS011;73485;49.194;12.104;2024-02-23T09:40:04;2.33;;;0.70;;
83541;SDS011;73485;49.194;12.104;2024-02-23T09:42:35;3.15;;;0.90;;
83541;SDS011;73485;49.194;12.104;2024-02-23T09:45:05;1.45;;;0.73;;
83541;SDS011;73485;49.194;12.104;2024-02-23T09:47:33;3.05;;;0.82;;
83541;SDS011;73485;49.194;12.104;2024-02-23T09:50:02;2.35;;;0.80;;
83541;SDS011;73485;49.194;12.104;2024-02-23T09:52:31;2.42;;;0.75;;
83541;SDS011;73485;49.194;12.104;2024-02-23T09:54:59;1.13;;;0.60;;
83541;SDS011;73485;49.194;12.104;2024-02-23T09:57:27;1.90;;;1.40;;
83541;SDS011;73485;49.194;12.104;2024-02-23T09:59:56;2.40;;;1.20;;
83541;SDS011;73485;49.194;12.104;2024-02-23T10:02:24;2.92;;;1.17;;
83541;SDS011;73485;49.194;12.104;2024-02-23T10:04:52;5.28;;;0.82;;
83541;SDS011;73485;49.194;12.104;2024-02-23T10:07:20;1.98;;;0.88;;
83541;SDS011;73485;49.194;12.104;2024-02-23T10:09:48;2.33;;;0.70;;
83541;SDS011;73485;49.194;12.104;2024-02-23T10:12:16;1.00;;;0.70;;
83541;SDS011;73485;49.194;12.104;2024-02-23T10:14:44;2.20;;;0.80;;
83541;SDS011;73485;49.194;12.104;2024-02-23T10:17:13;4.03;;;1.10;;
83541;SDS011;73485;49.194;12.104;2024-02-23T10:19:41;1.17;;;0.73;;
83541;SDS011;73485;49.194;12.104;2024-02-23T10:22:09;1.40;;;1.05;;
83541;SDS011;73485;49.194;12.104;2024-02-23T10:24:38;3.78;;;0.82;;
83541;SDS011;73485;49.194;12.104;2024-02-23T10:27:05;2.35;;;1.05;;
83541;SDS011;73485;49.194;12.104;2024-02-23T10:29:33;1.55;;;0.90;;
83541;SDS011;73485;49.194;12.104;2024-02-23T10:32:00;7.38;;;2.08;;
83541;SDS011;73485;49.194;12.104;2024-02-23T10:34:31;3.30;;;1.60;;
83541;SDS011;73485;49.194;12.104;2024-02-23T10:36:59;1.83;;;0.93;;
83541;SDS011;73485;49.194;12.104;2024-02-23T10:39:27;2.45;;;0.80;;
83541;SDS011;73485;49.194;12.104;2024-02-23T10:41:57;1.05;;;0.75;;
83541;SDS011;73485;49.194;12.104;2024-02-23T10:44:26;4.13;;;1.27;;
83541;SDS011;73485;49.194;12.104;2024-02-23T10:46:55;5.80;;;1.05;;
83541;SDS011;73485;49.194;12.104;2024-02-23T10:49:23;2.13;;;1.00;;
83541;SDS011;73485;49.194;12.104;2024-02-23T10:51:55;1.65;;;1.08;;
83541;SDS011;73485;49.194;12.104;2024-02-23T10:54:22;0.70;;;0.70;;
83541;SDS011;73485;49.194;12.104;2024-02-23T10:56:50;2.97;;;0.98;;
83541;SDS011;73485;49.194;12.104;2024-02-23T10:59:18;2.67;;;1.27;;
83541;SDS011;73485;49.194;12.104;2024-02-23T11:01:49;1.73;;;0.80;;
83541;SDS011;73485;49.194;12.104;2024-02-23T11:04:18;1.48;;;0.73;;
83541;SDS011;73485;49.194;12.104;2024-02-23T11:06:50;0.85;;;0.63;;
83541;SDS011;73485;49.194;12.104;2024-02-23T11:09:22;5.97;;;1.35;;
83541;SDS011;73485;49.194;12.104;2024-02-23T11:11:51;2.70;;;1.23;;
83541;SDS011;73485;49.194;12.104;2024-02-23T11:14:29;2.63;;;1.23;;
83541;SDS011;73485;49.194;12.104;2024-02-23T11:16:58;2.70;;;1.42;;
83541;SDS011;73485;49.194;12.104;2024-02-23T11:19:32;5.90;;;2.05;;
83541;SDS011;73485;49.194;12.104;2024-02-23T11:22:01;3.75;;;1.50;;
83541;SDS011;73485;49.194;12.104;2024-02-23T11:24:30;1.92;;;1.10;;
83541;SDS011;73485;49.194;12.104;2024-02-23T11:29:34;2.42;;;0.98;;
83541;SDS011;73485;49.194;12.104;2024-02-23T11:32:03;1.92;;;0.90;;
83541;SDS011;73485;49.194;12.104;2024-02-23T11:34:31;1.95;;;0.95;;
83541;SDS011;73485;49.194;12.104;2024-02-23T11:36:58;0.98;;;0.75;;
83541;SDS011;73485;49.194;12.104;2024-02-23T11:39:36;4.13;;;0.80;;
83541;SDS011;73485;49.194;12.104;2024-02-23T11:42:04;2.10;;;0.68;;
83541;SDS011;73485;49.194;12.104;2024-02-23T11:44:33;1.08;;;0.63;;
83541;SDS011;73485;49.194;12.104;2024-02-23T11:47:01;1.52;;;0.70;;
83541;SDS011;73485;49.194;12.104;2024-02-23T11:49:29;1.10;;;0.75;;
83541;SDS011;73485;49.194;12.104;2024-02-23T11:51:58;3.08;;;0.75;;
83541;SDS011;73485;49.194;12.104;2024-02-23T11:54:25;2.95;;;1.27;;
83541;SDS011;73485;49.194;12.104;2024-02-23T11:56:54;2.47;;;0.80;;
83541;SDS011;73485;49.194;12.104;2024-02-23T11:59:22;1.20;;;0.80;;
83541;SDS011;73485;49.194;12.104;2024-02-23T12:01:50;1.08;;;0.70;;
83541;SDS011;73485;49.194;12.104;2024-02-23T12:04:18;1.52;;;0.75;;
83541;SDS011;73485;49.194;12.104;2024-02-23T12:06:45;1.67;;;0.77;;
83541;SDS011;73485;49.194;12.104;2024-02-23T12:09:13;1.95;;;0.95;;
83541;SDS011;73485;49.194;12.104;2024-02-23T12:11:41;4.18;;;0.80;;
83541;SDS011;73485;49.194;12.104;2024-02-23T12:14:11;0.75;;;0.70;;
83541;SDS011;73485;49.194;12.104;2024-02-23T12:16:39;2.17;;;0.95;;
83541;SDS011;73485;49.194;12.104;2024-02-23T12:19:07;1.17;;;0.68;;
83541;SDS011;73485;49.194;12.104;2024-02-23T12:21:35;1.23;;;0.40;;
83541;SDS011;73485;49.194;12.104;2024-02-23T12:24:04;1.27;;;0.60;;
83541;SDS011;73485;49.194;12.104;2024-02-23T12:26:32;1.95;;;0.60;;
83541;SDS011;73485;49.194;12.104;2024-02-23T12:29:00;1.30;;;0.82;;
83541;SDS011;73485;49.194;12.104;2024-02-23T12:31:30;4.82;;;1.25;;
83541;SDS011;73485;49.194;12.104;2024-02-23T12:33:58;1.30;;;0.80;;
83541;SDS011;73485;49.194;12.104;2024-02-23T12:36:26;3.30;;;1.10;;
83541;SDS011;73485;49.194;12.104;2024-02-23T12:38:54;2.78;;;1.10;;
83541;SDS011;73485;49.194;12.104;2024-02-23T12:41:21;2.80;;;1.27;;
83541;SDS011;73485;49.194;12.104;2024-02-23T12:43:49;2.60;;;0.98;;
83541;SDS011;73485;49.194;12.104;2024-02-23T12:46:18;1.80;;;1.02;;
83541;SDS011;73485;49.194;12.104;2024-02-23T12:48:47;2.42;;;1.13;;
83541;SDS011;73485;49.194;12.104;2024-02-23T12:51:15;5.20;;;2.33;;
83541;SDS011;73485;49.194;12.104;2024-02-23T12:53:43;5.30;;;1.15;;
83541;SDS011;73485;49.194;12.104;2024-02-23T12:56:11;2.03;;;0.93;;
83541;SDS011;73485;49.194;12.104;2024-02-23T12:58:42;4.50;;;1.02;;
83541;SDS011;73485;49.194;12.104;2024-02-23T13:01:11;3.53;;;1.10;;
83541;SDS011;73485;49.194;12.104;2024-02-23T13:03:38;5.03;;;1.20;;
83541;SDS011;73485;49.194;12.104;2024-02-23T13:06:09;1.90;;;0.93;;
83541;SDS011;73485;49.194;12.104;2024-02-23T13:08:37;1.80;;;0.95;;
83541;SDS011;73485;49.194;12.104;2024-02-23T13:11:06;2.75;;;1.52;;
83541;SDS011;73485;49.194;12.104;2024-02-23T13:13:34;2.05;;;0.85;;
83541;SDS011;73485;49.194;12.104;2024-02-23T13:16:02;5.85;;;1.27;;
83541;SDS011;73485;49.194;12.104;2024-02-23T13:18:30;1.95;;;1.05;;
83541;SDS011;73485;49.194;12.104;2024-02-23T13:20:58;4.65;;;1.20;;
83541;SDS011;73485;49.194;12.104;2024-02-23T13:23:27;4.18;;;1.50;;
83541;SDS011;73485;49.194;12.104;2024-02-23T13:25:55;2.08;;;1.17;;
83541;SDS011;73485;49.194;12.104;2024-02-23T13:28:23;3.60;;;1.75;;
83541;SDS011;73485;49.194;12.104;2024-02-23T13:30:50;2.92;;;1.42;;
83541;SDS011;73485;49.194;12.104;2024-02-23T13:33:18;2.83;;;1.35;;
83541;SDS011;73485;49.194;12.104;2024-02-23T13:35:47;4.38;;;2.00;;
83541;SDS011;73485;49.194;12.104;2024-02-23T13:38:15;2.85;;;1.52;;
83541;SDS011;73485;49.194;12.104;2024-02-23T13:40:44;4.03;;;1.65;;
83541;SDS011;73485;49.194;12.104;2024-02-23T13:43:12;3.83;;;1.13;;
83541;SDS011;73485;49.194;12.104;2024-02-23T13:45:48;3.90;;;1.63;;
83541;SDS011;73485;49.194;12.104;2024-02-23T13:48:17;3.03;;;1.50;;
83541;SDS011;73485;49.194;12.104;2024-02-23T13:50:46;5.93;;;1.55;;
83541;SDS011;73485;49.194;12.104;2024-02-23T13:53:14;2.85;;;1.33;;
83541;SDS011;73485;49.194;12.104;2024-02-23T13:55:43;1.77;;;0.75;;
83541;SDS011;73485;49.194;12.104;2024-02-23T13:58:11;6.38;;;1.00;;
83541;SDS011;73485;49.194;12.104;2024-02-23T14:00:39;3.15;;;1.23;;
83541;SDS011;73485;49.194;12.104;2024-02-23T14:08:54;1.63;;;1.00;;
83541;SDS011;73485;49.194;12.104;2024-02-23T14:11:23;2.50;;;1.00;;
83541;SDS011;73485;49.194;12.104;2024-02-23T14:13:50;2.03;;;1.13;;
83541;SDS011;73485;49.194;12.104;2024-02-23T14:16:20;3.70;;;1.35;;
83541;SDS011;73485;49.194;12.104;2024-02-23T14:18:47;2.38;;;0.93;;
83541;SDS011;73485;49.194;12.104;2024-02-23T14:21:15;1.25;;;0.70;;
83541;SDS011;73485;49.194;12.104;2024-02-23T14:23:44;1.00;;;0.75;;
83541;SDS011;73485;49.194;12.104;2024-02-23T14:26:12;3.67;;;0.75;;
83541;SDS011;73485;49.194;12.104;2024-02-23T14:28:41;2.45;;;1.15;;
83541;SDS011;73485;49.194;12.104;2024-02-23T14:31:09;2.63;;;1.23;;
83541;SDS011;73485;49.194;12.104;2024-02-23T14:33:36;2.65;;;1.17;;
83541;SDS011;73485;49.194;12.104;2024-02-23T14:36:04;1.60;;;0.80;;
83541;SDS011;73485;49.194;12.104;2024-02-23T14:38:32;2.10;;;0.85;;
83541;SDS011;73485;49.194;12.104;2024-02-23T14:43:47;1.30;;;0.73;;
83541;SDS011;73485;49.194;12.104;2024-02-23T14:46:15;4.65;;;1.30;;
83541;SDS011;73485;49.194;12.104;2024-02-23T14:48:43;1.75;;;1.00;;
83541;SDS011;73485;49.194;12.104;2024-02-23T14:51:12;1.85;;;0.88;;
83541;SDS011;73485;49.194;12.104;2024-02-23T14:53:40;3.60;;;0.80;;